Flight Track Log - Related Links

Times and Time Zones

All times are in EST time to prevent confusion due to time zone crossing. See the EJA951 flight status page for this flight to view local times or setup timezone preferences in your user account.

Time Position Orientation Groundspeed Altitude Reporting Facility
EST Latitude Longitude Course Direction KTS MPH feet Rate Location/Type
Sun 08:36:36 AM 30.2675 -97.5892 120° Southeast 234 269 6,300  Level Houston Center
Sun 08:37:37 AM 30.2794 -97.5089 80° East 247 284 8,800 2,164 Climbing Houston Center
Sun 08:38:38 AM 30.2958 -97.4136 79° East 286 329 10,700 1,574 Climbing Houston Center
Sun 08:39:39 AM 30.3144 -97.3017 79° East 341 392 12,000 1,475 Climbing Houston Center
Sun 08:40:40 AM 30.3350 -97.1819 79° East 369 425 13,700 1,610 Climbing Houston Center
Sun 08:41:00 AM 30.0970 -96.7600 120° Southeast  Level Estimated
Sun 08:41:42 AM 30.3525 -97.0611 80° East 378 435 15,300  Level Houston Center
Sun 08:42:43 AM 30.3439 -96.9369 95° East 385 443 16,700 1,279 Climbing Houston Center
Sun 08:43:44 AM 30.3358 -96.8094 94° East 392 451 17,900 1,279 Climbing Houston Center
Sun 08:44:45 AM 30.3278 -96.6792 94° East 399 459 19,300 1,279 Climbing Houston Center
Sun 08:45:46 AM 30.3200 -96.5447 94° East 412 474 20,500 1,180 Climbing Houston Center
Sun 08:46:47 AM 30.3106 -96.4064 94° East 426 490 21,700 1,131 Climbing Houston Center
Sun 08:47:48 AM 30.3019 -96.2625 94° East 440 506 22,800 1,426 Climbing Houston Center
Sun 08:48:49 AM 30.2903 -96.0911 94° East 452 520 24,600 1,366 Climbing Houston Center
Sun 08:49:51 AM 30.2417 -95.9542 112° Southeast 466 536 25,600 976 Climbing Houston Center
Sun 08:50:52 AM 30.1786 -95.8197 118° Southeast 474 545 26,600 984 Climbing Houston Center
Sun 08:51:53 AM 30.1122 -95.6789 119° Southeast 493 567 27,600 836 Climbing Houston Center
Sun 08:52:54 AM 30.0461 -95.5364 118° Southeast 499 574 28,300 885 Climbing Houston Center
Sun 08:53:55 AM 29.9792 -95.3894 118° Southeast 510 587 29,400 1,033 Climbing Houston Center
Sun 08:54:56 AM 29.9683 -95.2231 94° East 519 597 30,400 984 Climbing Houston Center
Sun 08:55:57 AM 29.9839 -95.0558 84° East 519 597 31,400 885 Climbing Houston Center
Sun 08:56:58 AM 29.9981 -94.8939 84° East 521 600 32,200 976 Climbing Houston Center
Sun 08:58:00 AM 30.0136 -94.7183 84° East 526 605 33,400 1,073 Climbing Houston Center
Sun 08:59:01 AM 30.0283 -94.5478 84° East 530 610 34,400 1,033 Climbing Houston Center
Sun 09:00:02 AM 30.0450 -94.3561 84° East 527 606 35,500 1,033 Climbing Houston Center
Sun 09:01:03 AM 30.0592 -94.1861 84° East 531 611 36,500 984 Climbing Houston Center
Sun 09:02:04 AM 30.0725 -94.0133 85° East 539 620 37,500 984 Climbing Houston Center
Sun 09:03:05 AM 30.0858 -93.8400 85° East 544 626 38,500 984 Climbing Houston Center
Sun 09:04:06 AM 30.0975 -93.6672 85° East 545 627 39,500 934 Climbing Houston Center
Sun 09:05:07 AM 30.1103 -93.4964 85° East 545 627 40,400 738 Climbing Houston Center
Sun 09:06:08 AM 30.1233 -93.3250 85° East 547 629 41,000 295 Climbing Houston Center
Sun 09:07:09 AM 30.1406 -93.1144 85° East 554 638 41,000  Level Houston Center
Sun 09:08:11 AM 30.1717 -92.9422 78° East 552 635 41,000  Level Houston Center
Sun 09:09:11 AM 30.2069 -92.7697 77° East 553 636 41,000  Level Houston Center
Sun 09:10:13 AM 30.2400 -92.5967 77° East 554 638 41,000  Level Houston Center
Sun 09:11:14 AM 30.2736 -92.4231 77° East 556 640 41,000  Level Houston Center
Sun 09:12:15 AM 30.3072 -92.2494 77° East 556 640 41,000  Level Houston Center
Sun 09:13:16 AM 30.3392 -92.0778 78° East 551 634 41,000  Level Houston Center
Sun 09:14:17 AM 30.3714 -91.9056 78° East 551 634 41,000  Level Houston Center
Sun 09:15:18 AM 30.4047 -91.7325 77° East 552 635 41,000  Level Houston Center
Sun 09:16:19 AM 30.4383 -91.5503 78° East 549 632 41,000  Level Houston Center
Sun 09:17:20 AM 30.4697 -91.3786 78° East 546 628 41,000  Level Houston Center
Sun 09:18:21 AM 30.4958 -91.2056 80° East 547 629 41,000  Level Houston Center
Sun 09:19:23 AM 30.5100 -91.0289 85° East 550 633 41,000  Level Houston Center
Sun 09:20:24 AM 30.5294 -90.8194 84° East 546 628 41,000  Level Houston Center
Sun 09:21:25 AM 30.5444 -90.6433 84° East 548 631 41,000  Level Houston Center
Sun 09:22:26 AM 30.5603 -90.4692 84° East 545 627 41,000  Level Houston Center
Sun 09:23:27 AM 30.5761 -90.2936 84° East 545 627 41,000  Level Houston Center
Sun 09:24:29 AM 30.5906 -90.1178 85° East 544 626 41,000  Level Houston Center
Sun 09:25:30 AM 30.6061 -89.9411 84° East 546 628 41,000  Level Houston Center
Sun 09:26:31 AM 30.6217 -89.7625 84° East 547 629 41,000  Level Houston Center
Sun 09:27:32 AM 30.6356 -89.5856 85° East 545 627 41,000  Level Houston Center
Sun 09:28:34 AM 30.6475 -89.4081 85° East 548 631 41,000  Level Houston Center
Sun 09:29:35 AM 30.6550 -89.2292 87° East 553 636 41,000  Level Houston Center
Sun 09:30:36 AM 30.6525 -89.0511 91° East 552 635 41,000  Level Houston Center
Sun 09:31:37 AM 30.6522 -88.8536 90° East 554 638 41,000  Level Houston Center
Sun 09:32:38 AM 30.6503 -88.6756 91° East 555 639 41,000  Level Houston Center
Sun 09:33:40 AM 30.6500 -88.4975 90° East 558 642 41,000  Level Houston Center
Sun 09:34:41 AM 30.6486 -88.3197 90° East 557 641 41,000  Level Houston Center
Sun 09:35:42 AM 30.6469 -88.1425 91° East 557 641 41,000  Level Houston Center
Sun 09:36:43 AM 30.6464 -87.9300 90° East 556 640 41,000  Level Houston Center
Sun 09:37:45 AM 30.6425 -87.7528 91° East 555 639 41,000  Level Houston Center
Sun 09:38:41 AM 30.6219 -87.6019 99° East 554 638 41,000  Level Jacksonville Center
Sun 09:39:41 AM 30.5844 -87.4264 104° East 554 638 41,000  Level Jacksonville Center
Sun 09:40:41 AM 30.5489 -87.2508 103° East 554 638 41,000  Level Jacksonville Center
Sun 09:41:42 AM 30.5150 -87.0808 103° East 554 638 41,000  Level Jacksonville Center
Sun 09:42:41 AM 30.4769 -86.9031 104° East 560 644 41,000  Level Jacksonville Center
Sun 09:43:41 AM 30.4367 -86.7183 104° East 555 639 41,000 -50 Level Jacksonville Center
Sun 09:44:41 AM 30.4019 -86.5461 103° East 555 639 40,900  Descending Jacksonville Center
Sun 09:45:41 AM 30.3631 -86.3736 105° East 555 639 41,000 50 Climbing Jacksonville Center
Sun 09:46:41 AM 30.3258 -86.2014 104° East 555 639 41,000  Level Jacksonville Center
Sun 09:47:41 AM 30.2886 -86.0294 104° East 555 639 41,000  Level Jacksonville Center
Sun 09:49:00 AM 30.2315 -85.8330 104° East  Level FlightAware Approximate
Sun 09:49:41 AM 30.2125 -85.7047 104° East 555 639 41,000  Level Jacksonville Center
Sun 09:50:41 AM 30.1764 -85.5381 104° East 555 639 41,000  Level Jacksonville Center
Sun 09:51:41 AM 30.1364 -85.3422 103° East 557 641 41,000  Level Jacksonville Center
Sun 09:52:41 AM 30.0978 -85.1758 105° East 552 635 41,000  Level Jacksonville Center
Sun 09:53:41 AM 30.0611 -85.0069 104° East 545 627 41,000  Level Jacksonville Center
Sun 09:54:41 AM 30.0242 -84.8381 104° East 540 621 41,000  Level Jacksonville Center
Sun 09:55:42 AM 29.9847 -84.6694 105° East 540 621 41,000  Level Jacksonville Center
Sun 09:56:41 AM 29.9431 -84.5033 106° East 540 621 41,000  Level Jacksonville Center
Sun 09:57:41 AM 29.8572 -84.3631 125° Southeast 522 601 41,000  Level Jacksonville Center
Sun 09:58:41 AM 29.7519 -84.2419 135° Southeast 527 606 41,000  Level Jacksonville Center
Sun 09:59:41 AM 29.6614 -84.1356 134° Southeast 520 598 41,000  Level Jacksonville Center
Sun 10:00:41 AM 29.5539 -84.0169 136° Southeast 526 605 41,000  Level Jacksonville Center
Sun 10:01:41 AM 29.4506 -83.8967 135° Southeast 526 605 41,000  Level Jacksonville Center
Sun 10:02:41 AM 29.3469 -83.7789 135° Southeast 526 605 41,000  Level Jacksonville Center
Sun 10:03:41 AM 29.2411 -83.6611 136° Southeast 526 605 41,000  Level Jacksonville Center
Sun 10:04:41 AM 29.1375 -83.5439 135° Southeast 526 605 41,000  Level Jacksonville Center
Sun 10:05:41 AM 29.0336 -83.4244 135° Southeast 526 605 41,000  Level Jacksonville Center
Sun 10:06:41 AM 28.9297 -83.3100 136° Southeast 526 605 41,000  Level Jacksonville Center
Sun 10:07:41 AM 28.8258 -83.1936 136° Southeast 526 605 41,000  Level Jacksonville Center
Sun 10:08:41 AM 28.7258 -83.0819 136° Southeast 521 600 41,000  Level Jacksonville Center
Sun 10:09:41 AM 28.6258 -82.9658 134° Southeast 516 594 41,000  Level Jacksonville Center
Sun 10:10:41 AM 28.5233 -82.8525 136° Southeast 511 588 41,000  Level Jacksonville Center
Sun 10:11:41 AM 28.4233 -82.7414 136° Southeast 511 588 41,000 -99 Level Jacksonville Center
Sun 10:12:42 AM 28.3208 -82.6261 135° Southeast 511 588 40,800 -700 Descending Jacksonville Center
Sun 10:13:41 AM 28.2203 -82.5156 136° Southeast 511 588 39,600 -2,211 Descending Jacksonville Center
Sun 10:15:14 AM 28.0419 -82.3303 137° Southeast 534 615 35,200 -1,843 Descending Miami Center
Sun 10:16:14 AM 27.9108 -82.2675 157° South 514 592 34,900 -100 Descending Miami Center
Sun 10:17:14 AM 27.7708 -82.2189 163° South 513 590 35,000 50 Climbing Miami Center
Sun 10:18:14 AM 27.6431 -82.1728 162° South 529 609 35,000 -1,150 Level Miami Center
Sun 10:19:14 AM 27.5031 -82.1242 163° South 535 616 32,700 -2,700 Descending Miami Center
Sun 10:20:14 AM 27.3506 -82.0706 163° South 528 608 29,600 -2,850 Descending Miami Center
Sun 10:21:14 AM 27.2144 -82.0269 164° South 523 602 27,000 -2,600 Descending Miami Center
Sun 10:22:14 AM 27.0803 -81.9839 164° South 512 589 24,400 -2,150 Descending Miami Center
Sun 10:23:14 AM 26.9503 -81.9386 163° South 501 577 22,700 -1,750 Descending Miami Center
Sun 10:24:14 AM 26.8467 -81.8594 146° Southeast 461 531 20,900 -850 Descending Miami Center
Sun 10:25:14 AM 26.7539 -81.7603 136° Southeast 461 531 21,000 -600 Climbing Miami Center
Sun 10:26:14 AM 26.6997 -81.6347 116° Southeast 439 505 19,700 -1,000 Descending Miami Center
Sun 10:27:14 AM 26.7206 -81.5078 80° East 415 478 19,000 -400 Descending Miami Center
Sun 10:28:14 AM 26.7497 -81.3764 76° East 421 484 18,900 -1,300 Descending Miami Center
Sun 10:29:14 AM 26.7786 -81.2519 75° East 426 490 16,400 -2,300 Descending Miami Center
Sun 10:30:14 AM 26.8072 -81.1319 75° East 411 473 14,300 -2,100 Descending Miami Center
Sun 10:31:14 AM 26.8275 -81.0072 80° East 392 451 12,200 -2,100 Descending Miami Center
Sun 10:32:14 AM 26.8344 -80.9119 85° East 349 402 10,100 -1,100 Descending Miami Center
Sun 10:33:14 AM 26.8247 -80.8139 96° East 325 374 10,000 -150 Descending Miami Center
Sun 10:34:14 AM 26.7897 -80.7172 112° Southeast 305 351 9,800 -1,100 Descending Miami Center
Sun 10:35:14 AM 26.8106 -80.6342 74° East 280 322 7,800 -1,650 Descending Miami Center
Sun 10:36:14 AM 26.8664 -80.5708 45° Northeast 266 306 6,500 -1,400 Descending Miami Center
Sun 10:37:14 AM 26.9158 -80.5189 43° Northeast 261 300 5,000 6,250 Descending Miami Center
Sun 10:38:14 AM 26.9653 -80.4597 47° Northeast 241 277 19,000 -650 Climbing Miami Center
Sun 10:39:14 AM 26.9981 -80.4072 55° Northeast 219 252 3,700 -8,250 Descending Miami Center
Sun 10:40:14 AM 27.0328 -80.3522 55° Northeast 213 245 2,500 -1,200 Descending Miami Center
Sun 10:42:00 AM 27.1667 -80.2167 North  Level FlightAware Approximate
Sun 10:49:00 AM 27.1817 -80.2213 North  Level Estimated
Sun 10:50:00 AM 27.1817 -80.2213 North  Level Estimated
Sun 10:51:00 AM 27.1817 -80.2213 North  Level Estimated
Sun 10:52:00 AM 27.1817 -80.2213 North  Level Estimated
Sun 10:53:00 AM 27.1817 -80.2213 North  Level Estimated
Sun 10:54:00 AM 27.1817 -80.2213 North  Level Estimated

Login

Don't have an account? Register now (free) for customized features, flight alerts, and more!